Time;durP1;ratioP1;P1;durP2;ratioP2;P2;SDS_P1;SDS_P2;PMS_P1;PMS_P2;Temp;Humidity;BMP_temperature;BMP_pressure;BME280_temperature;BME280_humidity;BME280_pressure;Samples;Min_cycle;Max_cycle;Signal;HPM_P1;HPM_P2
2024/01/22 00:01:00;;;;;;;6.70;4.40;;;;;;;;;;5086154;28;20206;-59
2024/01/22 00:03:27;;;;;;;7.57;5.70;;;;;;;;;;5086315;28;20267;-58
2024/01/22 00:05:54;;;;;;;5.70;4.20;;;;;;;;;;5085689;28;20224;-59
2024/01/22 00:08:23;;;;;;;7.00;4.70;;;;;;;;;;5086554;28;20279;-59
2024/01/22 00:10:50;;;;;;;9.40;4.87;;;;;;;;;;5086550;28;20237;-59
2024/01/22 00:13:17;;;;;;;5.33;4.43;;;;;;;;;;5087495;28;20206;-59
2024/01/22 00:15:44;;;;;;;7.87;4.53;;;;;;;;;;5087783;28;20194;-59
2024/01/22 00:18:11;;;;;;;8.60;4.50;;;;;;;;;;5089733;28;20222;-59
2024/01/22 00:20:38;;;;;;;7.77;4.30;;;;;;;;;;5073197;28;20220;-59
2024/01/22 00:23:05;;;;;;;8.43;4.50;;;;;;;;;;5085006;28;20210;-59
2024/01/22 00:25:33;;;;;;;8.43;5.53;;;;;;;;;;5089949;28;20210;-59
2024/01/22 00:28:00;;;;;;;4.30;3.90;;;;;;;;;;5088969;28;20272;-59
2024/01/22 00:30:27;;;;;;;5.97;3.90;;;;;;;;;;5089957;28;20307;-60
2024/01/22 00:32:55;;;;;;;4.63;3.83;;;;;;;;;;5097000;28;20209;-59
2024/01/22 00:35:22;;;;;;;3.80;3.23;;;;;;;;;;5090988;28;20547;-59
2024/01/22 00:37:49;;;;;;;5.13;3.80;;;;;;;;;;5088783;28;20218;-59
2024/01/22 00:40:16;;;;;;;5.77;3.90;;;;;;;;;;5089247;28;20210;-58
2024/01/22 00:42:45;;;;;;;5.90;3.90;;;;;;;;;;5089260;28;20222;-59
2024/01/22 00:45:12;;;;;;;5.47;3.83;;;;;;;;;;5088001;28;20218;-59
2024/01/22 00:47:39;;;;;;;5.73;3.63;;;;;;;;;;5089490;28;20199;-59
2024/01/22 00:50:06;;;;;;;5.03;3.77;;;;;;;;;;5084671;28;20218;-59
2024/01/22 00:52:34;;;;;;;5.17;3.50;;;;;;;;;;5088828;28;20210;-59
2024/01/22 00:55:01;;;;;;;3.90;3.10;;;;;;;;;;5089305;28;20205;-58
2024/01/22 00:57:28;;;;;;;4.37;3.60;;;;;;;;;;5093709;28;20256;-59
2024/01/22 00:59:56;;;;;;;5.03;3.70;;;;;;;;;;5089736;28;20620;-58
2024/01/22 01:02:23;;;;;;;4.87;3.90;;;;;;;;;;5087772;28;20218;-58
2024/01/22 01:04:50;;;;;;;10.63;3.83;;;;;;;;;;5082644;28;20215;-59
2024/01/22 01:07:17;;;;;;;4.70;3.67;;;;;;;;;;5082746;28;20226;-58
2024/01/22 01:09:44;;;;;;;3.77;3.47;;;;;;;;;;5068916;28;20646;-58
2024/01/22 01:12:11;;;;;;;4.97;3.50;;;;;;;;;;5074409;28;20758;-58
2024/01/22 01:14:39;;;;;;;3.97;3.47;;;;;;;;;;5086764;28;20202;-58
2024/01/22 01:17:07;;;;;;;3.70;3.40;;;;;;;;;;5092123;28;20234;-58
2024/01/22 01:19:35;;;;;;;5.10;3.70;;;;;;;;;;5090480;28;20194;-58
2024/01/22 01:22:02;;;;;;;6.83;4.00;;;;;;;;;;5089276;28;20668;-58
2024/01/22 01:24:29;;;;;;;4.57;3.20;;;;;;;;;;5088966;28;20209;-58
2024/01/22 01:26:56;;;;;;;5.33;3.80;;;;;;;;;;5089220;28;20210;-58
2024/01/22 01:29:23;;;;;;;4.93;3.77;;;;;;;;;;5089038;28;20640;-58
2024/01/22 01:31:50;;;;;;;5.07;3.83;;;;;;;;;;5093081;28;20202;-58
2024/01/22 01:34:19;;;;;;;5.43;3.53;;;;;;;;;;5109351;28;20290;-58
2024/01/22 01:36:46;;;;;;;5.03;3.30;;;;;;;;;;5099534;28;20259;-58
2024/01/22 01:39:13;;;;;;;8.10;3.73;;;;;;;;;;5087850;28;20207;-58
2024/01/22 01:41:40;;;;;;;6.13;4.20;;;;;;;;;;5088731;28;20321;-58
2024/01/22 01:44:07;;;;;;;4.83;3.70;;;;;;;;;;5088279;28;20285;-58
2024/01/22 01:46:34;;;;;;;4.87;3.37;;;;;;;;;;5095831;28;20202;-57
2024/01/22 01:49:02;;;;;;;6.03;4.00;;;;;;;;;;5091776;28;20225;-58
2024/01/22 01:51:31;;;;;;;5.70;3.50;;;;;;;;;;5088512;28;20728;-58
2024/01/22 01:53:58;;;;;;;3.70;3.00;;;;;;;;;;5088296;28;20207;-58
2024/01/22 01:56:25;;;;;;;4.33;3.57;;;;;;;;;;5076785;28;20207;-58
2024/01/22 01:58:54;;;;;;;6.43;3.97;;;;;;;;;;5087752;28;20238;-58
2024/01/22 02:01:21;;;;;;;5.67;3.60;;;;;;;;;;5088691;28;20237;-58
2024/01/22 02:03:48;;;;;;;4.67;3.53;;;;;;;;;;5079589;28;20217;-58
2024/01/22 02:06:15;;;;;;;8.43;3.77;;;;;;;;;;5068173;28;20243;-58
2024/01/22 02:08:52;;;;;;;9.20;3.67;;;;;;;;;;5070580;28;20207;-58
2024/01/22 02:11:20;;;;;;;4.80;3.83;;;;;;;;;;5088261;28;20322;-58
2024/01/22 02:13:47;;;;;;;6.40;3.20;;;;;;;;;;5088416;28;20211;-58
2024/01/22 02:16:15;;;;;;;6.47;3.17;;;;;;;;;;5089576;28;20824;-58
2024/01/22 02:18:42;;;;;;;6.90;4.17;;;;;;;;;;5088241;28;20261;-58
2024/01/22 02:21:09;;;;;;;7.33;3.67;;;;;;;;;;5084864;28;20198;-58
2024/01/22 02:23:37;;;;;;;4.73;3.50;;;;;;;;;;5082589;28;20210;-58
2024/01/22 02:26:05;;;;;;;2.77;2.57;;;;;;;;;;5088070;28;20202;-58
2024/01/22 02:28:32;;;;;;;5.13;2.90;;;;;;;;;;5087192;28;20300;-58
2024/01/22 02:31:01;;;;;;;6.60;3.07;;;;;;;;;;5087118;28;20202;-58
2024/01/22 02:33:28;;;;;;;7.90;3.27;;;;;;;;;;5067755;28;20210;-58
2024/01/22 02:35:56;;;;;;;2.93;2.73;;;;;;;;;;5086682;28;20210;-58
2024/01/22 02:38:23;;;;;;;2.70;2.50;;;;;;;;;;5087680;28;20264;-59
2024/01/22 02:40:51;;;;;;;3.67;2.83;;;;;;;;;;5088024;28;20202;-59
2024/01/22 02:43:18;;;;;;;3.93;2.60;;;;;;;;;;5085698;28;20230;-58
2024/01/22 02:45:47;;;;;;;5.27;2.97;;;;;;;;;;5087193;28;20215;-58
2024/01/22 02:48:14;;;;;;;3.53;2.30;;;;;;;;;;5087348;28;20218;-58
2024/01/22 02:50:41;;;;;;;2.70;2.47;;;;;;;;;;5086418;28;20260;-58
2024/01/22 02:53:08;;;;;;;3.40;2.60;;;;;;;;;;5087043;28;20260;-58
2024/01/22 02:55:35;;;;;;;4.00;2.47;;;;;;;;;;5082062;28;20210;-58
2024/01/22 02:58:03;;;;;;;5.63;2.17;;;;;;;;;;5085900;28;20245;-58
2024/01/22 03:00:30;;;;;;;2.90;2.70;;;;;;;;;;5085304;28;20198;-58
2024/01/22 03:02:57;;;;;;;3.00;2.33;;;;;;;;;;5086582;28;20205;-58
2024/01/22 03:05:24;;;;;;;3.60;2.37;;;;;;;;;;5086356;28;20198;-58
2024/01/22 03:07:51;;;;;;;3.50;2.03;;;;;;;;;;5086880;28;20215;-58
2024/01/22 03:10:18;;;;;;;3.67;2.33;;;;;;;;;;5086889;28;20237;-58
2024/01/22 03:12:45;;;;;;;3.50;2.00;;;;;;;;;;5089097;28;20262;-58
2024/01/22 03:15:14;;;;;;;2.00;1.90;;;;;;;;;;5086993;28;20202;-59
2024/01/22 03:17:41;;;;;;;4.40;1.83;;;;;;;;;;5073009;28;20225;-58
2024/01/22 03:20:09;;;;;;;2.93;2.00;;;;;;;;;;5084771;28;20232;-58
2024/01/22 03:22:36;;;;;;;2.40;2.10;;;;;;;;;;5086879;28;20725;-59
2024/01/22 03:25:03;;;;;;;4.10;2.00;;;;;;;;;;5084256;28;20224;-59
2024/01/22 03:27:30;;;;;;;3.07;1.90;;;;;;;;;;5086669;28;20205;-59
2024/01/22 03:29:57;;;;;;;4.63;2.50;;;;;;;;;;5086369;28;20198;-58
2024/01/22 03:32:25;;;;;;;1.83;1.70;;;;;;;;;;5086101;28;20201;-58
2024/01/22 03:34:52;;;;;;;1.90;1.80;;;;;;;;;;5085993;28;20214;-58
2024/01/22 03:37:19;;;;;;;1.97;1.87;;;;;;;;;;5077182;28;20599;-58
2024/01/22 03:39:46;;;;;;;2.17;1.87;;;;;;;;;;5102533;28;20230;-58
2024/01/22 03:42:13;;;;;;;2.03;1.90;;;;;;;;;;5086014;28;20202;-58
2024/01/22 03:44:40;;;;;;;2.20;2.00;;;;;;;;;;5085923;28;20895;-58
2024/01/22 03:47:07;;;;;;;3.37;2.20;;;;;;;;;;5087856;28;20265;-58
2024/01/22 03:49:36;;;;;;;3.80;2.07;;;;;;;;;;5090493;28;20225;-58
2024/01/22 03:52:03;;;;;;;2.00;1.90;;;;;;;;;;5091136;28;20755;-58
2024/01/22 03:54:30;;;;;;;2.97;1.97;;;;;;;;;;5104406;28;20218;-59
2024/01/22 03:56:57;;;;;;;2.83;1.97;;;;;;;;;;5090302;28;20209;-59
2024/01/22 03:59:24;;;;;;;2.10;1.93;;;;;;;;;;5090792;28;20237;-58
2024/01/22 04:01:51;;;;;;;3.10;1.70;;;;;;;;;;5090141;28;20660;-58
2024/01/22 04:04:18;;;;;;;3.10;1.80;;;;;;;;;;5090286;28;20207;-59
2024/01/22 04:06:46;;;;;;;1.57;1.47;;;;;;;;;;5090179;28;20213;-58
2024/01/22 04:09:13;;;;;;;2.70;1.63;;;;;;;;;;5089419;28;20715;-59
2024/01/22 04:11:41;;;;;;;2.53;1.83;;;;;;;;;;5070818;28;20204;-59
2024/01/22 04:14:08;;;;;;;2.70;1.90;;;;;;;;;;5088553;28;20210;-58
2024/01/22 04:16:35;;;;;;;2.07;1.60;;;;;;;;;;5094524;28;20221;-59
2024/01/22 04:19:02;;;;;;;1.87;1.77;;;;;;;;;;5089710;28;20907;-58
2024/01/22 04:21:29;;;;;;;1.93;1.53;;;;;;;;;;5090259;28;20212;-58
2024/01/22 04:23:57;;;;;;;1.17;1.13;;;;;;;;;;5089214;28;20603;-58
2024/01/22 04:26:24;;;;;;;2.67;1.70;;;;;;;;;;5089892;28;20206;-59
2024/01/22 04:28:51;;;;;;;2.57;2.17;;;;;;;;;;5090040;28;20438;-58
2024/01/22 04:31:19;;;;;;;2.30;1.97;;;;;;;;;;5086932;28;20263;-59
2024/01/22 04:33:46;;;;;;;2.20;2.00;;;;;;;;;;5084633;28;20208;-58
2024/01/22 04:36:13;;;;;;;3.37;1.83;;;;;;;;;;5089352;28;20205;-58
2024/01/22 04:38:40;;;;;;;2.13;2.00;;;;;;;;;;5083058;28;20231;-58
2024/01/22 04:41:08;;;;;;;1.90;1.80;;;;;;;;;;5088141;28;20217;-58
2024/01/22 04:43:35;;;;;;;2.73;1.57;;;;;;;;;;5089279;28;20199;-58
2024/01/22 04:46:02;;;;;;;1.77;1.67;;;;;;;;;;5077064;28;20688;-58
2024/01/22 04:48:29;;;;;;;2.03;1.90;;;;;;;;;;5089509;28;20569;-58
2024/01/22 04:50:56;;;;;;;2.53;0.97;;;;;;;;;;5089624;28;20496;-58
2024/01/22 04:53:23;;;;;;;4.70;1.93;;;;;;;;;;5089265;28;20214;-58
2024/01/22 04:55:50;;;;;;;2.17;1.77;;;;;;;;;;5089218;28;20835;-58
2024/01/22 04:58:19;;;;;;;1.80;1.70;;;;;;;;;;5089036;28;20241;-58
2024/01/22 05:00:46;;;;;;;1.90;1.80;;;;;;;;;;5088204;28;20202;-59
2024/01/22 05:03:20;;;;;;;2.70;1.80;;;;;;;;;;5089320;28;20206;-58
2024/01/22 05:05:47;;;;;;;2.43;2.00;;;;;;;;;;5088209;28;20611;-59
2024/01/22 05:08:14;;;;;;;2.97;1.80;;;;;;;;;;5089004;28;20207;-58
2024/01/22 05:10:41;;;;;;;3.10;1.83;;;;;;;;;;5087741;28;20252;-58
2024/01/22 05:13:08;;;;;;;1.50;1.40;;;;;;;;;;5088894;28;20217;-58
2024/01/22 05:15:37;;;;;;;3.70;1.70;;;;;;;;;;5086796;28;20221;-58
2024/01/22 05:18:04;;;;;;;2.20;1.60;;;;;;;;;;5075694;28;20217;-58
2024/01/22 05:20:31;;;;;;;1.57;1.50;;;;;;;;;;5089335;28;20210;-58
2024/01/22 05:22:58;;;;;;;2.23;2.03;;;;;;;;;;5086432;28;20205;-58
2024/01/22 05:25:25;;;;;;;3.33;1.57;;;;;;;;;;5082693;28;20790;-58
2024/01/22 05:27:52;;;;;;;3.53;1.50;;;;;;;;;;5088678;28;20208;-58
2024/01/22 05:30:19;;;;;;;2.20;1.57;;;;;;;;;;5088969;28;20202;-58
2024/01/22 05:32:47;;;;;;;1.90;1.40;;;;;;;;;;5088936;28;20214;-58
2024/01/22 05:35:15;;;;;;;1.90;1.80;;;;;;;;;;5088747;28;20796;-58
2024/01/22 05:37:42;;;;;;;3.47;1.90;;;;;;;;;;5088988;28;20206;-58
2024/01/22 05:40:10;;;;;;;0.90;0.90;;;;;;;;;;5088749;28;20222;-58
2024/01/22 05:42:38;;;;;;;3.37;1.57;;;;;;;;;;5089189;28;20236;-58
2024/01/22 05:45:05;;;;;;;3.97;1.43;;;;;;;;;;5088443;28;20241;-58
2024/01/22 05:47:32;;;;;;;1.80;1.50;;;;;;;;;;5074058;28;20206;-58
2024/01/22 05:50:01;;;;;;;2.40;1.47;;;;;;;;;;5087659;28;20204;-56
2024/01/22 05:52:29;;;;;;;4.83;1.40;;;;;;;;;;5076641;28;20212;-58
2024/01/22 05:54:56;;;;;;;1.77;1.67;;;;;;;;;;5088591;28;20372;-56
2024/01/22 05:57:23;;;;;;;2.30;1.43;;;;;;;;;;5088485;28;20210;-56
2024/01/22 05:59:50;;;;;;;3.03;1.23;;;;;;;;;;5088052;28;20623;-56
2024/01/22 06:02:17;;;;;;;1.53;1.43;;;;;;;;;;5084110;28;20210;-56
2024/01/22 06:04:44;;;;;;;1.93;1.37;;;;;;;;;;5087591;28;20202;-56
2024/01/22 06:07:12;;;;;;;3.50;1.37;;;;;;;;;;5087611;28;20202;-56
2024/01/22 06:09:39;;;;;;;1.70;1.60;;;;;;;;;;5087923;28;20729;-58
2024/01/22 06:12:06;;;;;;;2.40;1.47;;;;;;;;;;5084948;28;20194;-58
2024/01/22 06:14:33;;;;;;;4.83;1.70;;;;;;;;;;5070382;28;20211;-58
2024/01/22 06:17:00;;;;;;;1.70;1.50;;;;;;;;;;5108807;28;20208;-58
2024/01/22 06:19:27;;;;;;;3.23;1.60;;;;;;;;;;5092061;28;20847;-58
2024/01/22 06:21:54;;;;;;;2.97;1.50;;;;;;;;;;5088392;28;20222;-58
2024/01/22 06:24:23;;;;;;;2.23;1.60;;;;;;;;;;5088290;28;20214;-58
2024/01/22 06:26:50;;;;;;;1.40;1.30;;;;;;;;;;5087842;28;20210;-58
2024/01/22 06:29:17;;;;;;;1.67;1.57;;;;;;;;;;5087790;28;20204;-58
2024/01/22 06:31:44;;;;;;;1.63;1.30;;;;;;;;;;5085660;28;20206;-58
2024/01/22 06:34:12;;;;;;;1.43;1.23;;;;;;;;;;5077483;28;20213;-58
2024/01/22 06:36:39;;;;;;;1.63;1.53;;;;;;;;;;5088328;28;20226;-58
2024/01/22 06:39:08;;;;;;;2.40;1.50;;;;;;;;;;5097048;28;20232;-58
2024/01/22 06:41:36;;;;;;;1.33;1.23;;;;;;;;;;5085444;28;20203;-58
2024/01/22 06:44:03;;;;;;;1.73;1.20;;;;;;;;;;5087551;28;20317;-58
2024/01/22 06:46:30;;;;;;;1.70;1.33;;;;;;;;;;5085144;28;20209;-59
2024/01/22 06:48:57;;;;;;;1.60;1.33;;;;;;;;;;5067287;28;20211;-56
2024/01/22 06:51:24;;;;;;;2.03;1.70;;;;;;;;;;5080862;28;20581;-56
2024/01/22 06:53:50;;;;;;;2.50;1.27;;;;;;;;;;5086896;28;20220;-58
2024/01/22 06:56:17;;;;;;;1.50;1.40;;;;;;;;;;5087417;28;20473;-58
2024/01/22 06:58:45;;;;;;;1.90;1.20;;;;;;;;;;5087284;28;20828;-58
2024/01/22 07:01:14;;;;;;;1.10;1.10;;;;;;;;;;5087326;28;20220;-58
2024/01/22 07:03:41;;;;;;;1.20;1.20;;;;;;;;;;5087252;28;20237;-59
2024/01/22 07:06:08;;;;;;;1.20;1.07;;;;;;;;;;5085878;28;20206;-58
2024/01/22 07:08:35;;;;;;;0.90;0.90;;;;;;;;;;5069486;28;20740;-58
2024/01/22 07:11:02;;;;;;;1.23;1.17;;;;;;;;;;5083955;28;20238;-58
2024/01/22 07:13:29;;;;;;;0.90;0.90;;;;;;;;;;5077274;28;20207;-58
2024/01/22 07:15:57;;;;;;;1.63;0.70;;;;;;;;;;5079364;28;20565;-58
2024/01/22 07:18:24;;;;;;;1.90;0.90;;;;;;;;;;5094012;28;20213;-58
2024/01/22 07:20:52;;;;;;;3.27;1.30;;;;;;;;;;5086766;28;20226;-58
2024/01/22 07:23:20;;;;;;;1.80;1.07;;;;;;;;;;5085904;28;20302;-58
2024/01/22 07:25:48;;;;;;;1.17;1.17;;;;;;;;;;5086100;28;20302;-58
2024/01/22 07:28:15;;;;;;;3.57;1.20;;;;;;;;;;5086492;28;20223;-58
2024/01/22 07:30:42;;;;;;;0.77;0.77;;;;;;;;;;5081286;28;20210;-58
2024/01/22 07:33:11;;;;;;;1.27;1.07;;;;;;;;;;5102915;28;20430;-58
2024/01/22 07:35:38;;;;;;;3.87;1.00;;;;;;;;;;5085814;28;20210;-56
2024/01/22 07:38:06;;;;;;;2.57;0.93;;;;;;;;;;5087805;28;20604;-59
2024/01/22 07:40:33;;;;;;;2.13;1.20;;;;;;;;;;5086331;28;20347;-56
2024/01/22 07:43:00;;;;;;;2.90;1.20;;;;;;;;;;5086772;28;20618;-56
2024/01/22 07:45:27;;;;;;;1.00;0.97;;;;;;;;;;5085874;28;20199;-55
2024/01/22 07:47:54;;;;;;;0.93;0.93;;;;;;;;;;5086478;28;20272;-56
2024/01/22 07:50:22;;;;;;;2.70;1.50;;;;;;;;;;5086294;28;20580;-56
2024/01/22 07:52:49;;;;;;;1.17;1.00;;;;;;;;;;5086755;28;20236;-56
2024/01/22 07:55:17;;;;;;;0.80;0.80;;;;;;;;;;5084742;28;20210;-56
2024/01/22 07:57:44;;;;;;;1.07;0.97;;;;;;;;;;5085428;28;20249;-56
2024/01/22 08:00:12;;;;;;;1.80;1.23;;;;;;;;;;5086144;28;20214;-56
2024/01/22 08:02:40;;;;;;;0.97;0.97;;;;;;;;;;5080806;28;20297;-56
2024/01/22 08:05:07;;;;;;;2.20;1.13;;;;;;;;;;5075078;28;20581;-56
2024/01/22 08:07:35;;;;;;;1.80;1.20;;;;;;;;;;5086550;28;20216;-56
2024/01/22 08:10:02;;;;;;;1.10;1.00;;;;;;;;;;5086161;28;20234;-56
2024/01/22 08:12:29;;;;;;;1.47;1.37;;;;;;;;;;5086387;28;20744;-56
2024/01/22 08:14:56;;;;;;;0.77;0.77;;;;;;;;;;5085319;28;20195;-59
2024/01/22 08:17:23;;;;;;;1.40;1.30;;;;;;;;;;5086344;28;20214;-57
2024/01/22 08:19:50;;;;;;;1.30;1.20;;;;;;;;;;5085492;28;20722;-57
2024/01/22 08:22:17;;;;;;;1.37;1.07;;;;;;;;;;5085312;28;20210;-57
2024/01/22 08:24:46;;;;;;;1.87;1.20;;;;;;;;;;5070769;28;20207;-57
2024/01/22 08:27:13;;;;;;;1.13;1.13;;;;;;;;;;5085887;28;20195;-57
2024/01/22 08:29:40;;;;;;;1.63;1.20;;;;;;;;;;5085857;28;20221;-57
2024/01/22 08:32:07;;;;;;;1.20;1.10;;;;;;;;;;5085813;28;20264;-56
2024/01/22 08:34:37;;;;;;;2.00;1.23;;;;;;;;;;5087859;28;20228;-56
2024/01/22 08:37:04;;;;;;;0.97;0.97;;;;;;;;;;5089407;28;20730;-57
2024/01/22 08:39:31;;;;;;;0.87;0.87;;;;;;;;;;5089632;28;20230;-57
2024/01/22 08:42:00;;;;;;;3.73;1.10;;;;;;;;;;5089678;28;20672;-57
2024/01/22 08:44:27;;;;;;;1.63;0.90;;;;;;;;;;5089063;28;20203;-57
2024/01/22 08:46:54;;;;;;;1.90;1.30;;;;;;;;;;5089334;28;20226;-57
2024/01/22 08:49:21;;;;;;;0.90;0.90;;;;;;;;;;5089525;28;20206;-57
2024/01/22 08:51:48;;;;;;;0.70;0.70;;;;;;;;;;5083183;28;20215;-57
2024/01/22 08:54:15;;;;;;;1.10;1.10;;;;;;;;;;5070198;28;20219;-56
2024/01/22 08:56:42;;;;;;;2.20;1.07;;;;;;;;;;5089070;28;20215;-57
2024/01/22 08:59:10;;;;;;;2.00;1.00;;;;;;;;;;5072647;28;20231;-57
2024/01/22 09:01:37;;;;;;;1.27;1.20;;;;;;;;;;5088811;28;20210;-57
2024/01/22 09:04:06;;;;;;;1.00;1.00;;;;;;;;;;5075207;28;20865;-57
2024/01/22 09:06:33;;;;;;;2.73;0.97;;;;;;;;;;5088406;28;20992;-57
2024/01/22 09:09:00;;;;;;;1.40;1.03;;;;;;;;;;5088703;28;20708;-57
2024/01/22 09:11:27;;;;;;;0.87;0.80;;;;;;;;;;5080209;28;20214;-57
2024/01/22 09:13:54;;;;;;;2.90;1.00;;;;;;;;;;5068685;28;20584;-57
2024/01/22 09:16:22;;;;;;;3.50;1.03;;;;;;;;;;5086796;28;20202;-57
2024/01/22 09:18:49;;;;;;;0.87;0.87;;;;;;;;;;5088488;28;20526;-57
2024/01/22 09:21:16;;;;;;;2.50;1.00;;;;;;;;;;5088789;28;21047;-57
2024/01/22 09:23:43;;;;;;;1.07;0.90;;;;;;;;;;5087752;28;20218;-57
2024/01/22 09:26:10;;;;;;;1.17;1.17;;;;;;;;;;5089877;28;20210;-56
2024/01/22 09:28:37;;;;;;;0.77;0.63;;;;;;;;;;5090740;28;20210;-57
2024/01/22 09:31:05;;;;;;;1.00;0.90;;;;;;;;;;5097898;28;20735;-59
2024/01/22 09:33:33;;;;;;;1.20;1.10;;;;;;;;;;5091736;28;20656;-57
2024/01/22 09:36:03;;;;;;;1.17;0.90;;;;;;;;;;5087627;28;20645;-57
2024/01/22 09:38:30;;;;;;;1.90;0.93;;;;;;;;;;5088355;28;20211;-57
2024/01/22 09:40:58;;;;;;;1.23;1.20;;;;;;;;;;5089682;28;20218;-58
2024/01/22 09:43:25;;;;;;;1.07;1.00;;;;;;;;;;5088084;28;20752;-59
2024/01/22 09:45:52;;;;;;;1.37;0.83;;;;;;;;;;5086057;28;20211;-59
2024/01/22 09:48:19;;;;;;;2.43;1.00;;;;;;;;;;5093064;28;20583;-57
2024/01/22 09:50:51;;;;;;;3.27;1.00;;;;;;;;;;5087875;28;20198;-60
2024/01/22 09:53:18;;;;;;;2.00;1.10;;;;;;;;;;5078296;28;20318;-60
2024/01/22 09:56:02;;;;;;;1.20;1.03;;;;;;;;;;5087127;28;20626;-59
2024/01/22 09:58:32;;;;;;;0.90;0.90;;;;;;;;;;5080773;28;20230;-58
2024/01/22 10:01:00;;;;;;;0.83;0.83;;;;;;;;;;5083989;28;20222;-58
2024/01/22 10:03:30;;;;;;;0.80;0.80;;;;;;;;;;5071824;28;20626;-58
2024/01/22 10:06:00;;;;;;;1.70;1.07;;;;;;;;;;5087416;28;20214;-58
2024/01/22 10:08:27;;;;;;;0.90;0.90;;;;;;;;;;5087859;28;20213;-59
2024/01/22 10:10:54;;;;;;;0.87;0.87;;;;;;;;;;5072860;28;20748;-58
2024/01/22 10:13:21;;;;;;;1.10;0.97;;;;;;;;;;5087001;28;20194;-58
2024/01/22 10:15:48;;;;;;;2.77;0.90;;;;;;;;;;5086683;28;20202;-60
2024/01/22 10:18:16;;;;;;;1.20;1.07;;;;;;;;;;5086872;28;20293;-58
2024/01/22 10:20:44;;;;;;;2.20;1.10;;;;;;;;;;5087213;28;20226;-58
2024/01/22 10:23:12;;;;;;;1.00;0.93;;;;;;;;;;5086049;28;20198;-58
2024/01/22 10:25:40;;;;;;;1.07;0.90;;;;;;;;;;5083559;28;20213;-58
2024/01/22 10:28:11;;;;;;;0.70;0.70;;;;;;;;;;5086679;28;20203;-58
2024/01/22 10:30:39;;;;;;;0.83;0.83;;;;;;;;;;5087456;28;20213;-58
2024/01/22 10:33:12;;;;;;;1.57;1.00;;;;;;;;;;5085241;28;20299;-58
2024/01/22 10:35:39;;;;;;;2.53;1.00;;;;;;;;;;5071240;28;20198;-58
2024/01/22 10:38:07;;;;;;;1.70;0.80;;;;;;;;;;5084968;28;20202;-58
2024/01/22 10:40:36;;;;;;;1.80;1.10;;;;;;;;;;5082834;28;20244;-58
2024/01/22 10:43:18;;;;;;;1.40;0.80;;;;;;;;;;5086178;28;20210;-58
2024/01/22 10:45:46;;;;;;;1.00;0.90;;;;;;;;;;5086502;28;20209;-58
2024/01/22 10:48:13;;;;;;;0.90;0.90;;;;;;;;;;5087097;28;20441;-58
2024/01/22 10:50:42;;;;;;;4.60;1.67;;;;;;;;;;5085327;28;20203;-58
2024/01/22 10:53:10;;;;;;;1.47;1.17;;;;;;;;;;5086495;28;20214;-58
2024/01/22 10:55:39;;;;;;;1.20;1.10;;;;;;;;;;5086406;28;20218;-58
2024/01/22 10:58:09;;;;;;;0.90;0.90;;;;;;;;;;5086455;28;20806;-58
2024/01/22 11:00:40;;;;;;;1.03;1.00;;;;;;;;;;5086602;28;20245;-58
2024/01/22 11:03:10;;;;;;;1.33;0.90;;;;;;;;;;5067652;28;20217;-58
2024/01/22 11:05:38;;;;;;;1.40;0.80;;;;;;;;;;5085522;28;20599;-58
2024/01/22 11:08:07;;;;;;;1.40;1.10;;;;;;;;;;5066600;28;20514;-58
2024/01/22 11:10:34;;;;;;;1.57;0.90;;;;;;;;;;5078488;28;20234;-58
2024/01/22 11:13:03;;;;;;;1.10;0.97;;;;;;;;;;5086169;28;20681;-58
2024/01/22 11:15:30;;;;;;;2.30;1.00;;;;;;;;;;5085439;28;20233;-58
2024/01/22 11:17:57;;;;;;;2.20;0.97;;;;;;;;;;5086382;28;20206;-59
2024/01/22 11:20:25;;;;;;;2.57;1.30;;;;;;;;;;5086043;28;20234;-58
2024/01/22 11:22:59;;;;;;;2.53;1.20;;;;;;;;;;5086471;28;20240;-58
2024/01/22 11:25:27;;;;;;;1.13;1.00;;;;;;;;;;5066381;28;20295;-58
2024/01/22 11:28:01;;;;;;;0.83;0.80;;;;;;;;;;5083585;28;20206;-58
2024/01/22 11:30:30;;;;;;;1.20;1.13;;;;;;;;;;5085240;28;20213;-58
2024/01/22 11:32:57;;;;;;;1.40;1.20;;;;;;;;;;5085799;28;20668;-58
2024/01/22 11:35:33;;;;;;;3.10;1.30;;;;;;;;;;5070254;28;20215;-58
2024/01/22 11:38:01;;;;;;;0.97;0.97;;;;;;;;;;5083884;28;20206;-58
2024/01/22 11:40:42;;;;;;;1.70;0.97;;;;;;;;;;5077050;28;20267;-58
2024/01/22 11:43:10;;;;;;;2.10;1.30;;;;;;;;;;5084721;28;20210;-58
2024/01/22 11:45:38;;;;;;;1.70;1.13;;;;;;;;;;5086444;28;20309;-58
2024/01/22 11:48:15;;;;;;;3.70;1.33;;;;;;;;;;5085696;28;20270;-58
2024/01/22 11:50:42;;;;;;;1.30;1.20;;;;;;;;;;5086686;28;20301;-59
2024/01/22 11:53:09;;;;;;;4.07;1.67;;;;;;;;;;5085777;28;20209;-59
2024/01/22 11:55:36;;;;;;;1.63;1.47;;;;;;;;;;5085540;28;20217;-58
2024/01/22 11:58:07;;;;;;;1.30;1.20;;;;;;;;;;5085505;28;20637;-58
2024/01/22 12:00:34;;;;;;;2.63;1.17;;;;;;;;;;5085779;28;20366;-59
2024/01/22 12:03:02;;;;;;;1.53;1.43;;;;;;;;;;5085519;28;20199;-58
2024/01/22 12:05:29;;;;;;;1.47;1.30;;;;;;;;;;5085817;28;20217;-59
2024/01/22 12:07:56;;;;;;;1.57;1.27;;;;;;;;;;5086006;28;20856;-59
2024/01/22 12:10:24;;;;;;;1.73;1.60;;;;;;;;;;5088995;28;20241;-59
2024/01/22 12:12:52;;;;;;;1.83;1.37;;;;;;;;;;5089644;28;20202;-59
2024/01/22 12:15:19;;;;;;;1.97;1.30;;;;;;;;;;5088477;28;20205;-58
2024/01/22 12:17:46;;;;;;;2.40;1.63;;;;;;;;;;5090089;28;20245;-59
2024/01/22 12:20:16;;;;;;;1.90;1.20;;;;;;;;;;5089797;28;20210;-58
2024/01/22 12:22:43;;;;;;;1.40;1.30;;;;;;;;;;5089519;28;20862;-58
2024/01/22 12:25:12;;;;;;;1.70;1.57;;;;;;;;;;5089841;28;20207;-58
2024/01/22 12:27:39;;;;;;;1.60;1.50;;;;;;;;;;5089894;28;20381;-58
2024/01/22 12:30:07;;;;;;;1.77;1.27;;;;;;;;;;5085954;28;20213;-58
2024/01/22 12:32:35;;;;;;;1.47;1.40;;;;;;;;;;5083175;28;20271;-58
2024/01/22 12:35:02;;;;;;;3.27;1.33;;;;;;;;;;5083365;28;20242;-59
2024/01/22 12:37:31;;;;;;;2.77;1.60;;;;;;;;;;5085599;28;20716;-59
2024/01/22 12:40:15;;;;;;;1.60;1.50;;;;;;;;;;5088872;28;20897;-59
2024/01/22 12:42:45;;;;;;;3.30;1.33;;;;;;;;;;5080772;28;20252;-58
2024/01/22 12:45:14;;;;;;;1.47;1.37;;;;;;;;;;5089612;28;20210;-59
2024/01/22 12:47:41;;;;;;;1.17;1.10;;;;;;;;;;5081134;28;20202;-59
2024/01/22 12:50:09;;;;;;;2.10;1.53;;;;;;;;;;5089195;28;20217;-58
2024/01/22 12:52:38;;;;;;;1.23;1.20;;;;;;;;;;5088993;28;20218;-58
2024/01/22 12:55:06;;;;;;;1.70;1.03;;;;;;;;;;5089362;28;20194;-59
2024/01/22 12:57:33;;;;;;;1.10;1.10;;;;;;;;;;5089128;28;20297;-59
2024/01/22 13:00:00;;;;;;;0.87;0.87;;;;;;;;;;5069162;28;20231;-59
2024/01/22 13:02:27;;;;;;;2.73;1.20;;;;;;;;;;5078459;28;20222;-58
2024/01/22 13:04:54;;;;;;;1.33;1.13;;;;;;;;;;5075908;28;20941;-58
2024/01/22 13:07:21;;;;;;;0.80;0.80;;;;;;;;;;5087726;28;20205;-59
2024/01/22 13:09:49;;;;;;;2.20;0.90;;;;;;;;;;5088415;28;20837;-59
2024/01/22 13:12:16;;;;;;;0.87;0.70;;;;;;;;;;5088889;28;20197;-58
2024/01/22 13:14:44;;;;;;;0.90;0.90;;;;;;;;;;5076384;28;20301;-59
2024/01/22 13:17:11;;;;;;;0.70;0.70;;;;;;;;;;5078236;28;20297;-60
2024/01/22 13:19:38;;;;;;;0.90;0.90;;;;;;;;;;5087769;28;20229;-59
2024/01/22 13:22:06;;;;;;;1.20;0.60;;;;;;;;;;5078644;28;20222;-58
2024/01/22 13:24:33;;;;;;;1.80;0.70;;;;;;;;;;5088249;28;20206;-58
2024/01/22 13:27:02;;;;;;;0.80;0.80;;;;;;;;;;5088239;28;20202;-58
2024/01/22 13:29:29;;;;;;;1.57;0.57;;;;;;;;;;5088163;28;20211;-58
2024/01/22 13:31:57;;;;;;;0.80;0.80;;;;;;;;;;5085173;28;20301;-58
2024/01/22 13:34:26;;;;;;;2.50;1.00;;;;;;;;;;5079791;28;20207;-59
2024/01/22 13:36:53;;;;;;;1.00;1.00;;;;;;;;;;5086448;28;20763;-58
2024/01/22 13:39:20;;;;;;;0.70;0.70;;;;;;;;;;5088370;28;20209;-60
2024/01/22 13:41:48;;;;;;;0.70;0.70;;;;;;;;;;5086878;28;20229;-59
2024/01/22 13:44:17;;;;;;;0.70;0.70;;;;;;;;;;5083250;28;20229;-58
2024/01/22 13:46:44;;;;;;;0.80;0.80;;;;;;;;;;5087164;28;20875;-58
2024/01/22 13:49:12;;;;;;;0.97;0.90;;;;;;;;;;5074464;28;20259;-59
2024/01/22 13:51:39;;;;;;;0.70;0.70;;;;;;;;;;5067878;28;20207;-60
2024/01/22 13:54:05;;;;;;;0.93;0.93;;;;;;;;;;5086009;28;20210;-60
2024/01/22 13:56:35;;;;;;;1.00;1.00;;;;;;;;;;5087538;28;20680;-58
2024/01/22 13:59:02;;;;;;;1.40;1.30;;;;;;;;;;5087423;28;20238;-58
2024/01/22 14:01:30;;;;;;;1.60;1.00;;;;;;;;;;5087690;28;20659;-58
2024/01/22 14:03:58;;;;;;;0.93;0.90;;;;;;;;;;5087085;28;20555;-59
2024/01/22 14:06:25;;;;;;;3.00;0.90;;;;;;;;;;5087145;28;20313;-59
2024/01/22 14:08:52;;;;;;;1.17;0.90;;;;;;;;;;5087219;28;20232;-60
2024/01/22 14:11:19;;;;;;;1.17;1.17;;;;;;;;;;5086086;28;20202;-60
2024/01/22 14:13:46;;;;;;;1.23;0.73;;;;;;;;;;5087543;28;20205;-60
2024/01/22 14:16:14;;;;;;;2.30;1.00;;;;;;;;;;5083135;28;20224;-58
2024/01/22 14:18:42;;;;;;;2.40;0.90;;;;;;;;;;5087728;28;20369;-58
2024/01/22 14:21:10;;;;;;;0.77;0.77;;;;;;;;;;5086112;28;20257;-57
2024/01/22 14:23:37;;;;;;;0.70;0.70;;;;;;;;;;5086642;28;20202;-57
2024/01/22 14:26:04;;;;;;;0.90;0.90;;;;;;;;;;5084002;28;20210;-57
2024/01/22 14:28:31;;;;;;;0.80;0.80;;;;;;;;;;5085874;28;20205;-59
2024/01/22 14:30:58;;;;;;;0.73;0.73;;;;;;;;;;5085833;28;20225;-60
2024/01/22 14:33:26;;;;;;;2.77;0.70;;;;;;;;;;5085903;28;20308;-59
2024/01/22 14:35:54;;;;;;;0.80;0.80;;;;;;;;;;5086772;28;20297;-58
2024/01/22 14:38:21;;;;;;;1.03;0.80;;;;;;;;;;5086719;28;20263;-58
2024/01/22 14:40:50;;;;;;;0.90;0.90;;;;;;;;;;5086947;28;20995;-58
2024/01/22 14:43:17;;;;;;;0.97;0.63;;;;;;;;;;5083459;28;20233;-58
2024/01/22 14:45:44;;;;;;;2.00;1.37;;;;;;;;;;5087415;28;20222;-59